sensor_id;sensor_type;location;lat;lon;timestamp;pressure;altitude;pressure_sealevel;temperature;humidity
3102;BME280;1561;42.666;23.392;2022-08-01T00:00:28;95060.03;;;20.52;100.00
3102;BME280;1561;42.666;23.392;2022-08-01T00:03:20;95071.13;;;20.67;100.00
3102;BME280;1561;42.666;23.392;2022-08-01T00:05:55;95048.19;;;20.43;100.00
3102;BME280;1561;42.666;23.392;2022-08-01T00:08:42;95051.63;;;20.50;100.00
3102;BME280;1561;42.666;23.392;2022-08-01T00:11:22;95053.38;;;19.86;100.00
3102;BME280;1561;42.666;23.392;2022-08-01T00:13:54;95074.97;;;19.37;100.00
3102;BME280;1561;42.666;23.392;2022-08-01T00:16:25;95085.75;;;19.26;100.00
3102;BME280;1561;42.666;23.392;2022-08-01T00:19:02;95063.81;;;18.70;100.00
3102;BME280;1561;42.666;23.392;2022-08-01T00:21:30;95033.25;;;18.37;100.00
3102;BME280;1561;42.666;23.392;2022-08-01T00:24:05;95082.06;;;18.54;100.00
3102;BME280;1561;42.666;23.392;2022-08-01T00:26:54;95049.50;;;18.23;100.00
3102;BME280;1561;42.666;23.392;2022-08-01T00:29:27;95102.91;;;18.38;100.00
3102;BME280;1561;42.666;23.392;2022-08-01T00:32:00;95101.34;;;18.29;100.00
3102;BME280;1561;42.666;23.392;2022-08-01T00:34:53;95096.66;;;18.25;100.00
3102;BME280;1561;42.666;23.392;2022-08-01T00:37:24;95094.50;;;18.36;100.00
3102;BME280;1561;42.666;23.392;2022-08-01T00:40:03;95032.56;;;17.98;100.00
3102;BME280;1561;42.666;23.392;2022-08-01T00:43:12;95097.75;;;18.38;100.00
3102;BME280;1561;42.666;23.392;2022-08-01T00:45:51;95102.91;;;18.38;100.00
3102;BME280;1561;42.666;23.392;2022-08-01T00:48:34;95099.00;;;18.42;100.00
3102;BME280;1561;42.666;23.392;2022-08-01T00:51:10;95094.34;;;18.60;100.00
3102;BME280;1561;42.666;23.392;2022-08-01T00:53:44;95033.66;;;18.03;100.00
3102;BME280;1561;42.666;23.392;2022-08-01T00:56:13;94991.75;;;17.93;100.00
3102;BME280;1561;42.666;23.392;2022-08-01T00:58:44;95082.63;;;18.50;100.00
3102;BME280;1561;42.666;23.392;2022-08-01T01:01:33;95026.78;;;17.96;100.00
3102;BME280;1561;42.666;23.392;2022-08-01T01:04:10;95075.88;;;18.18;100.00
3102;BME280;1561;42.666;23.392;2022-08-01T01:06:55;95074.50;;;18.30;100.00
3102;BME280;1561;42.666;23.392;2022-08-01T01:09:35;95072.03;;;18.37;100.00
3102;BME280;1561;42.666;23.392;2022-08-01T01:12:16;95052.16;;;18.37;100.00
3102;BME280;1561;42.666;23.392;2022-08-01T01:18:35;95069.72;;;18.19;100.00
3102;BME280;1561;42.666;23.392;2022-08-01T01:21:32;95042.69;;;18.07;100.00
3102;BME280;1561;42.666;23.392;2022-08-01T01:24:13;95071.78;;;18.24;100.00
3102;BME280;1561;42.666;23.392;2022-08-01T01:26:53;95029.16;;;17.97;100.00
3102;BME280;1561;42.666;23.392;2022-08-01T01:29:58;95024.53;;;17.93;100.00
3102;BME280;1561;42.666;23.392;2022-08-01T01:32:33;95064.03;;;18.24;100.00
3102;BME280;1561;42.666;23.392;2022-08-01T01:35:51;95058.75;;;17.95;100.00
3102;BME280;1561;42.666;23.392;2022-08-01T01:38:32;95045.13;;;17.78;100.00
3102;BME280;1561;42.666;23.392;2022-08-01T01:41:18;95056.78;;;17.74;100.00
3102;BME280;1561;42.666;23.392;2022-08-01T01:43:56;95057.94;;;17.72;100.00
3102;BME280;1561;42.666;23.392;2022-08-01T01:46:30;95012.97;;;17.58;100.00
3102;BME280;1561;42.666;23.392;2022-08-01T01:49:13;95058.50;;;17.82;100.00
3102;BME280;1561;42.666;23.392;2022-08-01T01:51:51;95047.53;;;17.80;100.00
3102;BME280;1561;42.666;23.392;2022-08-01T01:54:39;95012.66;;;17.53;100.00
3102;BME280;1561;42.666;23.392;2022-08-01T01:57:26;95057.19;;;17.86;100.00
3102;BME280;1561;42.666;23.392;2022-08-01T02:00:10;95054.16;;;17.82;100.00
3102;BME280;1561;42.666;23.392;2022-08-01T02:03:02;95013.88;;;17.65;100.00
3102;BME280;1561;42.666;23.392;2022-08-01T02:05:39;95027.09;;;17.70;100.00
3102;BME280;1561;42.666;23.392;2022-08-01T02:08:34;95033.94;;;17.63;100.00
3102;BME280;1561;42.666;23.392;2022-08-01T02:11:04;95019.84;;;17.35;100.00
3102;BME280;1561;42.666;23.392;2022-08-01T02:13:54;95021.00;;;17.25;100.00
3102;BME280;1561;42.666;23.392;2022-08-01T02:16:34;95040.38;;;17.67;100.00
3102;BME280;1561;42.666;23.392;2022-08-01T02:19:30;95017.69;;;17.47;100.00
3102;BME280;1561;42.666;23.392;2022-08-01T02:22:14;95045.16;;;17.48;100.00
3102;BME280;1561;42.666;23.392;2022-08-01T02:25:07;95044.50;;;17.46;100.00
3102;BME280;1561;42.666;23.392;2022-08-01T02:27:43;94977.44;;;16.91;100.00
3102;BME280;1561;42.666;23.392;2022-08-01T02:33:39;95042.13;;;17.36;100.00
3102;BME280;1561;42.666;23.392;2022-08-01T02:36:26;95028.56;;;17.34;100.00
3102;BME280;1561;42.666;23.392;2022-08-01T02:39:23;95042.44;;;17.41;100.00
3102;BME280;1561;42.666;23.392;2022-08-01T02:42:19;95002.72;;;17.34;100.00
3102;BME280;1561;42.666;23.392;2022-08-01T02:44:56;95045.66;;;17.43;100.00
3102;BME280;1561;42.666;23.392;2022-08-01T02:47:44;95019.91;;;17.27;100.00
3102;BME280;1561;42.666;23.392;2022-08-01T02:50:34;95031.31;;;17.41;100.00
3102;BME280;1561;42.666;23.392;2022-08-01T02:56:35;95008.63;;;17.20;100.00
3102;BME280;1561;42.666;23.392;2022-08-01T02:59:23;95042.28;;;17.35;100.00
3102;BME280;1561;42.666;23.392;2022-08-01T03:02:10;95043.47;;;17.24;100.00
3102;BME280;1561;42.666;23.392;2022-08-01T03:07:52;95025.69;;;16.91;100.00
3102;BME280;1561;42.666;23.392;2022-08-01T03:10:27;95030.31;;;16.95;100.00
3102;BME280;1561;42.666;23.392;2022-08-01T03:13:17;95040.59;;;17.19;100.00
3102;BME280;1561;42.666;23.392;2022-08-01T03:16:38;94996.63;;;16.97;100.00
3102;BME280;1561;42.666;23.392;2022-08-01T03:19:15;95012.41;;;17.02;100.00
3102;BME280;1561;42.666;23.392;2022-08-01T03:21:56;95027.09;;;17.01;100.00
3102;BME280;1561;42.666;23.392;2022-08-01T03:24:42;95023.66;;;17.17;100.00
3102;BME280;1561;42.666;23.392;2022-08-01T03:27:18;94960.88;;;16.86;100.00
3102;BME280;1561;42.666;23.392;2022-08-01T03:30:08;95010.81;;;17.01;100.00
3102;BME280;1561;42.666;23.392;2022-08-01T03:33:21;95047.50;;;17.19;100.00
3102;BME280;1561;42.666;23.392;2022-08-01T03:36:16;95036.19;;;17.20;100.00
3102;BME280;1561;42.666;23.392;2022-08-01T03:39:16;95024.56;;;17.24;100.00
3102;BME280;1561;42.666;23.392;2022-08-01T03:42:05;94968.00;;;17.45;100.00
3102;BME280;1561;42.666;23.392;2022-08-01T03:45:06;95036.84;;;18.65;100.00
3102;BME280;1561;42.666;23.392;2022-08-01T03:48:08;95049.03;;;18.93;100.00
3102;BME280;1561;42.666;23.392;2022-08-01T03:50:51;95047.44;;;19.07;100.00
3102;BME280;1561;42.666;23.392;2022-08-01T03:53:33;95042.28;;;19.57;100.00
3102;BME280;1561;42.666;23.392;2022-08-01T03:56:19;95045.25;;;19.89;100.00
3102;BME280;1561;42.666;23.392;2022-08-01T03:59:04;95041.13;;;20.37;100.00
3102;BME280;1561;42.666;23.392;2022-08-01T04:01:41;95042.88;;;20.85;100.00
3102;BME280;1561;42.666;23.392;2022-08-01T04:10:30;95042.66;;;20.80;100.00
3102;BME280;1561;42.666;23.392;2022-08-01T04:13:17;95038.63;;;20.50;100.00
3102;BME280;1561;42.666;23.392;2022-08-01T04:15:56;95049.75;;;20.92;100.00
3102;BME280;1561;42.666;23.392;2022-08-01T04:18:46;95049.72;;;21.60;99.70
3102;BME280;1561;42.666;23.392;2022-08-01T04:21:24;95039.72;;;20.89;100.00
3102;BME280;1561;42.666;23.392;2022-08-01T04:24:06;95036.47;;;21.49;100.00
3102;BME280;1561;42.666;23.392;2022-08-01T04:26:45;95038.28;;;22.86;88.12
3102;BME280;1561;42.666;23.392;2022-08-01T04:29:28;95022.88;;;22.33;91.72
3102;BME280;1561;42.666;23.392;2022-08-01T04:32:16;95038.13;;;22.55;90.82
3102;BME280;1561;42.666;23.392;2022-08-01T04:34:56;95056.59;;;21.00;100.00
3102;BME280;1561;42.666;23.392;2022-08-01T04:37:30;95048.66;;;22.02;100.00
3102;BME280;1561;42.666;23.392;2022-08-01T04:40:18;95034.09;;;22.79;92.45
3102;BME280;1561;42.666;23.392;2022-08-01T04:43:06;95033.69;;;22.88;90.27
3102;BME280;1561;42.666;23.392;2022-08-01T04:48:40;95027.97;;;23.37;84.48
3102;BME280;1561;42.666;23.392;2022-08-01T04:51:25;95037.38;;;24.26;78.84
3102;BME280;1561;42.666;23.392;2022-08-01T04:54:13;95026.03;;;23.13;87.28
3102;BME280;1561;42.666;23.392;2022-08-01T04:57:02;95041.38;;;24.29;79.53
3102;BME280;1561;42.666;23.392;2022-08-01T04:59:42;95011.44;;;25.41;68.82
3102;BME280;1561;42.666;23.392;2022-08-01T05:02:13;95018.72;;;23.85;80.33
3102;BME280;1561;42.666;23.392;2022-08-01T05:04:43;95008.34;;;24.90;71.80
3102;BME280;1561;42.666;23.392;2022-08-01T05:07:15;95005.72;;;24.16;70.55
3102;BME280;1561;42.666;23.392;2022-08-01T05:09:47;94981.34;;;25.14;64.23
3102;BME280;1561;42.666;23.392;2022-08-01T05:12:23;95023.13;;;24.78;68.71
3102;BME280;1561;42.666;23.392;2022-08-01T05:15:03;95007.88;;;25.35;64.43
3102;BME280;1561;42.666;23.392;2022-08-01T05:17:37;95019.09;;;25.42;62.80
3102;BME280;1561;42.666;23.392;2022-08-01T05:20:15;95009.97;;;25.63;59.91
3102;BME280;1561;42.666;23.392;2022-08-01T05:22:49;95016.63;;;25.77;60.11
3102;BME280;1561;42.666;23.392;2022-08-01T05:25:20;95004.84;;;24.22;67.80
3102;BME280;1561;42.666;23.392;2022-08-01T05:27:51;94992.66;;;25.08;63.48
3102;BME280;1561;42.666;23.392;2022-08-01T05:30:28;95013.78;;;25.49;59.96
3102;BME280;1561;42.666;23.392;2022-08-01T05:33:02;95014.66;;;25.72;57.64
3102;BME280;1561;42.666;23.392;2022-08-01T05:35:34;95013.81;;;27.41;52.05
3102;BME280;1561;42.666;23.392;2022-08-01T05:38:18;95011.44;;;27.05;53.67
3102;BME280;1561;42.666;23.392;2022-08-01T05:40:46;94982.97;;;27.59;50.14
3102;BME280;1561;42.666;23.392;2022-08-01T05:43:31;95004.75;;;27.60;50.77
3102;BME280;1561;42.666;23.392;2022-08-01T05:46:02;95001.34;;;28.60;46.17
3102;BME280;1561;42.666;23.392;2022-08-01T05:48:33;95006.84;;;27.86;47.65
3102;BME280;1561;42.666;23.392;2022-08-01T05:51:05;95015.22;;;28.11;47.00
3102;BME280;1561;42.666;23.392;2022-08-01T05:53:37;95018.94;;;27.87;45.53
3102;BME280;1561;42.666;23.392;2022-08-01T05:56:13;95017.09;;;28.15;44.63
3102;BME280;1561;42.666;23.392;2022-08-01T05:58:47;95020.53;;;28.16;45.81
3102;BME280;1561;42.666;23.392;2022-08-01T06:01:22;94977.94;;;27.30;45.22
3102;BME280;1561;42.666;23.392;2022-08-01T06:03:53;95016.00;;;27.83;46.10
3102;BME280;1561;42.666;23.392;2022-08-01T06:06:21;95005.56;;;28.61;43.06
3102;BME280;1561;42.666;23.392;2022-08-01T06:08:50;95016.59;;;28.30;43.08
3102;BME280;1561;42.666;23.392;2022-08-01T06:11:37;95020.50;;;27.60;45.80
3102;BME280;1561;42.666;23.392;2022-08-01T06:14:09;95016.47;;;27.06;46.39
3102;BME280;1561;42.666;23.392;2022-08-01T06:16:54;94997.31;;;27.68;45.16
3102;BME280;1561;42.666;23.392;2022-08-01T06:19:21;94961.91;;;27.82;44.50
3102;BME280;1561;42.666;23.392;2022-08-01T06:22:03;95018.00;;;28.65;41.09
3102;BME280;1561;42.666;23.392;2022-08-01T06:24:34;95007.41;;;28.16;44.07
3102;BME280;1561;42.666;23.392;2022-08-01T06:27:03;94990.81;;;26.85;45.39
3102;BME280;1561;42.666;23.392;2022-08-01T06:29:39;94976.69;;;28.16;42.59
3102;BME280;1561;42.666;23.392;2022-08-01T06:32:12;94995.19;;;28.54;41.88
3102;BME280;1561;42.666;23.392;2022-08-01T06:34:46;95004.00;;;27.87;43.16
3102;BME280;1561;42.666;23.392;2022-08-01T06:37:17;94997.38;;;28.41;41.98
3102;BME280;1561;42.666;23.392;2022-08-01T06:39:47;94999.81;;;29.13;39.96
3102;BME280;1561;42.666;23.392;2022-08-01T06:42:17;95000.94;;;29.61;38.83
3102;BME280;1561;42.666;23.392;2022-08-01T06:45:07;95002.56;;;29.23;38.29
3102;BME280;1561;42.666;23.392;2022-08-01T06:47:40;94991.63;;;28.77;38.24
3102;BME280;1561;42.666;23.392;2022-08-01T06:50:14;94978.56;;;28.49;38.76
3102;BME280;1561;42.666;23.392;2022-08-01T06:52:48;94974.06;;;28.33;39.40
3102;BME280;1561;42.666;23.392;2022-08-01T06:55:20;94992.19;;;29.77;37.37
3102;BME280;1561;42.666;23.392;2022-08-01T06:57:53;94990.28;;;30.20;36.51
3102;BME280;1561;42.666;23.392;2022-08-01T07:00:26;94980.13;;;27.89;40.14
3102;BME280;1561;42.666;23.392;2022-08-01T07:02:58;94985.50;;;28.10;40.74
3102;BME280;1561;42.666;23.392;2022-08-01T07:05:35;94961.06;;;28.92;38.81
3102;BME280;1561;42.666;23.392;2022-08-01T07:08:05;94952.22;;;27.99;40.14
3102;BME280;1561;42.666;23.392;2022-08-01T07:10:45;94973.84;;;27.90;41.25
3102;BME280;1561;42.666;23.392;2022-08-01T07:13:19;94960.34;;;27.98;41.79
3102;BME280;1561;42.666;23.392;2022-08-01T07:15:51;94966.81;;;27.79;42.41
3102;BME280;1561;42.666;23.392;2022-08-01T07:18:29;94992.53;;;28.21;41.69
3102;BME280;1561;42.666;23.392;2022-08-01T07:21:05;94985.63;;;28.65;40.33
3102;BME280;1561;42.666;23.392;2022-08-01T07:23:37;94869.94;;;29.03;39.23
3102;BME280;1561;42.666;23.392;2022-08-01T07:26:11;94942.31;;;30.91;36.58
3102;BME280;1561;42.666;23.392;2022-08-01T07:28:43;94998.41;;;29.27;39.22
3102;BME280;1561;42.666;23.392;2022-08-01T07:31:17;94970.91;;;29.40;39.06
3102;BME280;1561;42.666;23.392;2022-08-01T07:33:47;94990.00;;;29.95;38.48
3102;BME280;1561;42.666;23.392;2022-08-01T07:36:14;94989.22;;;29.30;39.85
3102;BME280;1561;42.666;23.392;2022-08-01T07:38:47;94946.78;;;28.67;39.49
3102;BME280;1561;42.666;23.392;2022-08-01T07:41:15;94994.72;;;28.74;40.16
3102;BME280;1561;42.666;23.392;2022-08-01T07:43:46;94968.56;;;29.87;37.57
3102;BME280;1561;42.666;23.392;2022-08-01T07:46:16;94905.56;;;28.06;39.63
3102;BME280;1561;42.666;23.392;2022-08-01T07:48:47;94981.19;;;28.49;39.75
3102;BME280;1561;42.666;23.392;2022-08-01T07:51:14;94978.56;;;28.65;40.05
3102;BME280;1561;42.666;23.392;2022-08-01T07:53:45;94978.13;;;29.06;39.23
3102;BME280;1561;42.666;23.392;2022-08-01T07:56:14;94938.34;;;29.24;38.51
3102;BME280;1561;42.666;23.392;2022-08-01T07:58:42;94981.19;;;28.49;39.99
3102;BME280;1561;42.666;23.392;2022-08-01T08:01:12;94961.69;;;29.16;39.60
3102;BME280;1561;42.666;23.392;2022-08-01T08:03:42;94977.50;;;30.34;37.04
3102;BME280;1561;42.666;23.392;2022-08-01T08:06:17;94975.84;;;30.01;37.86
3102;BME280;1561;42.666;23.392;2022-08-01T08:08:48;94976.28;;;30.15;37.13
3102;BME280;1561;42.666;23.392;2022-08-01T08:11:16;94986.03;;;30.77;36.39
3102;BME280;1561;42.666;23.392;2022-08-01T08:13:44;94997.84;;;27.82;42.46
3102;BME280;1561;42.666;23.392;2022-08-01T08:16:12;94972.41;;;30.27;38.31
3102;BME280;1561;42.666;23.392;2022-08-01T08:18:47;94985.69;;;30.37;37.53
3102;BME280;1561;42.666;23.392;2022-08-01T08:21:18;94973.88;;;30.76;36.59
3102;BME280;1561;42.666;23.392;2022-08-01T08:23:47;94987.59;;;30.15;37.49
3102;BME280;1561;42.666;23.392;2022-08-01T08:26:32;94960.66;;;29.60;38.81
3102;BME280;1561;42.666;23.392;2022-08-01T08:29:03;94982.47;;;30.98;36.54
3102;BME280;1561;42.666;23.392;2022-08-01T08:31:32;94986.88;;;29.12;39.21
3102;BME280;1561;42.666;23.392;2022-08-01T08:34:01;94975.00;;;27.54;43.22
3102;BME280;1561;42.666;23.392;2022-08-01T08:36:36;94994.81;;;30.25;38.11
3102;BME280;1561;42.666;23.392;2022-08-01T08:39:11;94999.13;;;29.88;38.34
3102;BME280;1561;42.666;23.392;2022-08-01T08:41:38;94996.81;;;29.48;38.65
3102;BME280;1561;42.666;23.392;2022-08-01T08:44:06;95001.19;;;29.59;37.47
3102;BME280;1561;42.666;23.392;2022-08-01T08:46:42;94982.31;;;29.46;37.79
3102;BME280;1561;42.666;23.392;2022-08-01T08:49:10;94996.25;;;29.63;38.67
3102;BME280;1561;42.666;23.392;2022-08-01T08:51:42;94965.53;;;30.00;37.39
3102;BME280;1561;42.666;23.392;2022-08-01T08:54:21;94970.38;;;31.02;35.20
3102;BME280;1561;42.666;23.392;2022-08-01T08:56:51;94983.88;;;29.90;36.79
3102;BME280;1561;42.666;23.392;2022-08-01T08:59:21;94982.16;;;32.03;32.92
3102;BME280;1561;42.666;23.392;2022-08-01T09:01:58;94969.19;;;32.01;33.16
3102;BME280;1561;42.666;23.392;2022-08-01T09:04:30;94983.72;;;29.75;36.17
3102;BME280;1561;42.666;23.392;2022-08-01T09:07:00;94957.78;;;30.73;32.97
3102;BME280;1561;42.666;23.392;2022-08-01T09:09:30;94977.81;;;31.72;33.00
3102;BME280;1561;42.666;23.392;2022-08-01T09:12:00;94958.19;;;31.43;33.34
3102;BME280;1561;42.666;23.392;2022-08-01T09:14:31;94957.06;;;32.10;32.84
3102;BME280;1561;42.666;23.392;2022-08-01T09:17:05;94974.09;;;31.11;34.62
3102;BME280;1561;42.666;23.392;2022-08-01T09:19:42;94953.53;;;29.82;35.40
3102;BME280;1561;42.666;23.392;2022-08-01T09:22:18;94964.13;;;30.14;35.47
3102;BME280;1561;42.666;23.392;2022-08-01T09:24:58;94961.63;;;30.65;34.29
3102;BME280;1561;42.666;23.392;2022-08-01T09:27:25;94954.38;;;31.24;33.54
3102;BME280;1561;42.666;23.392;2022-08-01T09:30:07;94940.28;;;30.67;34.01
3102;BME280;1561;42.666;23.392;2022-08-01T09:32:36;94933.19;;;30.67;33.96
3102;BME280;1561;42.666;23.392;2022-08-01T09:35:22;94942.34;;;30.96;32.69
3102;BME280;1561;42.666;23.392;2022-08-01T09:37:51;94946.41;;;30.72;33.67
3102;BME280;1561;42.666;23.392;2022-08-01T09:40:18;94958.75;;;29.77;35.25
3102;BME280;1561;42.666;23.392;2022-08-01T09:42:48;94964.94;;;30.14;34.26
3102;BME280;1561;42.666;23.392;2022-08-01T09:45:32;94969.19;;;29.51;34.98
3102;BME280;1561;42.666;23.392;2022-08-01T09:48:06;94957.97;;;30.35;34.36
3102;BME280;1561;42.666;23.392;2022-08-01T09:50:40;94962.91;;;29.73;35.05
3102;BME280;1561;42.666;23.392;2022-08-01T09:53:12;94927.78;;;31.35;32.99
3102;BME280;1561;42.666;23.392;2022-08-01T09:55:41;94943.56;;;30.47;33.85
3102;BME280;1561;42.666;23.392;2022-08-01T09:58:12;94933.84;;;30.53;34.06
3102;BME280;1561;42.666;23.392;2022-08-01T10:00:41;94946.59;;;29.76;34.79
3102;BME280;1561;42.666;23.392;2022-08-01T10:03:20;94931.38;;;30.36;34.54
3102;BME280;1561;42.666;23.392;2022-08-01T10:05:52;94952.09;;;29.75;36.34
3102;BME280;1561;42.666;23.392;2022-08-01T10:08:27;94931.41;;;30.41;35.58
3102;BME280;1561;42.666;23.392;2022-08-01T10:11:07;94935.38;;;30.75;34.14
3102;BME280;1561;42.666;23.392;2022-08-01T10:13:40;94915.78;;;30.35;34.65
3102;BME280;1561;42.666;23.392;2022-08-01T10:16:09;94939.13;;;29.68;35.92
3102;BME280;1561;42.666;23.392;2022-08-01T10:18:51;94932.28;;;31.35;33.11
3102;BME280;1561;42.666;23.392;2022-08-01T10:21:19;94918.75;;;30.12;34.49
3102;BME280;1561;42.666;23.392;2022-08-01T10:23:53;94941.50;;;28.17;39.14
3102;BME280;1561;42.666;23.392;2022-08-01T10:26:21;94921.31;;;29.75;36.70
3102;BME280;1561;42.666;23.392;2022-08-01T10:28:52;94925.41;;;30.14;35.89
3102;BME280;1561;42.666;23.392;2022-08-01T10:31:20;94927.06;;;30.62;35.16
3102;BME280;1561;42.666;23.392;2022-08-01T10:33:48;94941.34;;;29.55;37.25
3102;BME280;1561;42.666;23.392;2022-08-01T10:36:18;94930.66;;;30.14;36.22
3102;BME280;1561;42.666;23.392;2022-08-01T10:38:47;94933.19;;;31.14;35.34
3102;BME280;1561;42.666;23.392;2022-08-01T10:41:19;94922.59;;;30.99;35.05
3102;BME280;1561;42.666;23.392;2022-08-01T10:43:48;94932.00;;;29.42;36.86
3102;BME280;1561;42.666;23.392;2022-08-01T10:46:25;94942.47;;;29.85;36.91
3102;BME280;1561;42.666;23.392;2022-08-01T10:48:56;94900.84;;;30.45;35.87
3102;BME280;1561;42.666;23.392;2022-08-01T10:51:28;94918.22;;;29.57;37.66
3102;BME280;1561;42.666;23.392;2022-08-01T10:53:55;94933.09;;;29.24;38.90
3102;BME280;1561;42.666;23.392;2022-08-01T10:56:38;94920.63;;;28.11;40.23
3102;BME280;1561;42.666;23.392;2022-08-01T10:59:09;94917.81;;;29.70;37.51
3102;BME280;1561;42.666;23.392;2022-08-01T11:01:37;94908.88;;;30.65;35.70
3102;BME280;1561;42.666;23.392;2022-08-01T11:04:09;94916.00;;;31.06;35.18
3102;BME280;1561;42.666;23.392;2022-08-01T11:06:49;94919.28;;;30.40;36.36
3102;BME280;1561;42.666;23.392;2022-08-01T11:09:24;94911.13;;;30.42;35.96
3102;BME280;1561;42.666;23.392;2022-08-01T11:12:03;94905.78;;;29.30;37.58
3102;BME280;1561;42.666;23.392;2022-08-01T11:17:40;94904.59;;;29.65;37.40
3102;BME280;1561;42.666;23.392;2022-08-01T11:20:14;94893.69;;;29.08;38.55
3102;BME280;1561;42.666;23.392;2022-08-01T11:26:12;94899.34;;;29.21;38.66
3102;BME280;1561;42.666;23.392;2022-08-01T11:31:32;94905.53;;;28.89;39.35
3102;BME280;1561;42.666;23.392;2022-08-01T11:34:00;94889.81;;;27.90;41.71
3102;BME280;1561;42.666;23.392;2022-08-01T11:36:27;94818.13;;;27.17;42.02
3102;BME280;1561;42.666;23.392;2022-08-01T11:39:14;94917.84;;;28.01;42.31
3102;BME280;1561;42.666;23.392;2022-08-01T11:41:48;94909.09;;;27.67;42.70
3102;BME280;1561;42.666;23.392;2022-08-01T11:44:22;94906.88;;;27.76;42.36
3102;BME280;1561;42.666;23.392;2022-08-01T11:46:59;94896.91;;;27.89;41.49
3102;BME280;1561;42.666;23.392;2022-08-01T11:49:49;94882.16;;;27.88;41.56
3102;BME280;1561;42.666;23.392;2022-08-01T11:52:25;94904.31;;;28.25;41.34
3102;BME280;1561;42.666;23.392;2022-08-01T11:55:06;94901.69;;;28.42;41.54
3102;BME280;1561;42.666;23.392;2022-08-01T11:57:39;94896.19;;;28.10;41.86
3102;BME280;1561;42.666;23.392;2022-08-01T12:00:16;94899.38;;;27.96;41.75
3102;BME280;1561;42.666;23.392;2022-08-01T12:02:44;94886.81;;;28.47;41.95
3102;BME280;1561;42.666;23.392;2022-08-01T12:05:15;94885.03;;;28.53;41.14
3102;BME280;1561;42.666;23.392;2022-08-01T12:07:49;94891.31;;;28.35;40.72
3102;BME280;1561;42.666;23.392;2022-08-01T12:10:18;94889.34;;;28.59;40.48
3102;BME280;1561;42.666;23.392;2022-08-01T12:12:51;94902.88;;;28.01;42.86
3102;BME280;1561;42.666;23.392;2022-08-01T12:15:30;94890.03;;;28.38;41.38
3102;BME280;1561;42.666;23.392;2022-08-01T12:18:01;94885.25;;;28.35;42.22
3102;BME280;1561;42.666;23.392;2022-08-01T12:20:32;94878.84;;;28.42;41.49
3102;BME280;1561;42.666;23.392;2022-08-01T12:23:03;94881.09;;;27.73;42.87
3102;BME280;1561;42.666;23.392;2022-08-01T12:25:37;94894.13;;;28.45;42.18
3102;BME280;1561;42.666;23.392;2022-08-01T12:28:09;94896.13;;;29.14;40.33
3102;BME280;1561;42.666;23.392;2022-08-01T12:30:43;94901.28;;;28.33;42.24
3102;BME280;1561;42.666;23.392;2022-08-01T12:33:17;94884.31;;;28.08;42.51
3102;BME280;1561;42.666;23.392;2022-08-01T12:35:47;94899.53;;;28.22;41.87
3102;BME280;1561;42.666;23.392;2022-08-01T12:38:21;94894.19;;;28.34;41.77
3102;BME280;1561;42.666;23.392;2022-08-01T12:40:50;94896.34;;;28.37;41.08
3102;BME280;1561;42.666;23.392;2022-08-01T12:43:21;94891.94;;;28.26;42.39
3102;BME280;1561;42.666;23.392;2022-08-01T12:45:55;94898.34;;;27.97;43.25
3102;BME280;1561;42.666;23.392;2022-08-01T12:48:30;94788.06;;;27.36;42.85
3102;BME280;1561;42.666;23.392;2022-08-01T12:50:58;94843.69;;;27.66;42.67
3102;BME280;1561;42.666;23.392;2022-08-01T12:53:34;94886.56;;;28.16;42.49
3102;BME280;1561;42.666;23.392;2022-08-01T12:56:08;94874.38;;;28.10;42.48
3102;BME280;1561;42.666;23.392;2022-08-01T12:58:37;94862.25;;;28.09;41.76
3102;BME280;1561;42.666;23.392;2022-08-01T13:01:11;94866.50;;;28.10;43.17
3102;BME280;1561;42.666;23.392;2022-08-01T13:03:41;94885.28;;;28.18;43.02
3102;BME280;1561;42.666;23.392;2022-08-01T13:06:23;94871.66;;;28.21;42.42
3102;BME280;1561;42.666;23.392;2022-08-01T13:08:53;94880.34;;;28.05;43.82
3102;BME280;1561;42.666;23.392;2022-08-01T13:11:26;94853.50;;;27.87;43.18
3102;BME280;1561;42.666;23.392;2022-08-01T13:13:54;94877.13;;;28.36;42.94
3102;BME280;1561;42.666;23.392;2022-08-01T13:16:25;94875.91;;;28.77;42.09
3102;BME280;1561;42.666;23.392;2022-08-01T13:18:57;94876.59;;;28.89;42.90
3102;BME280;1561;42.666;23.392;2022-08-01T13:21:25;94867.22;;;28.76;41.93
3102;BME280;1561;42.666;23.392;2022-08-01T13:24:01;94863.09;;;29.02;41.69
3102;BME280;1561;42.666;23.392;2022-08-01T13:26:43;94825.72;;;28.40;42.50
3102;BME280;1561;42.666;23.392;2022-08-01T13:29:13;94852.38;;;28.32;43.55
3102;BME280;1561;42.666;23.392;2022-08-01T13:31:43;94861.78;;;28.12;43.86
3102;BME280;1561;42.666;23.392;2022-08-01T13:34:15;94859.88;;;28.24;43.51
3102;BME280;1561;42.666;23.392;2022-08-01T13:36:46;94846.63;;;28.52;43.14
3102;BME280;1561;42.666;23.392;2022-08-01T13:39:15;94813.47;;;28.29;42.94
3102;BME280;1561;42.666;23.392;2022-08-01T13:42:00;94834.16;;;27.76;45.05
3102;BME280;1561;42.666;23.392;2022-08-01T13:44:31;94849.63;;;27.89;44.39
3102;BME280;1561;42.666;23.392;2022-08-01T13:47:09;94858.06;;;27.91;45.47
3102;BME280;1561;42.666;23.392;2022-08-01T13:49:36;94854.28;;;27.71;45.15
3102;BME280;1561;42.666;23.392;2022-08-01T13:52:05;94851.03;;;28.30;44.77
3102;BME280;1561;42.666;23.392;2022-08-01T13:54:36;94856.13;;;28.36;44.95
3102;BME280;1561;42.666;23.392;2022-08-01T13:57:03;94850.41;;;27.90;45.32
3102;BME280;1561;42.666;23.392;2022-08-01T13:59:36;94833.13;;;28.10;45.00
3102;BME280;1561;42.666;23.392;2022-08-01T14:02:10;94840.31;;;27.82;45.32
3102;BME280;1561;42.666;23.392;2022-08-01T14:04:37;94849.94;;;28.09;45.49
3102;BME280;1561;42.666;23.392;2022-08-01T14:07:04;94824.66;;;27.75;45.48
3102;BME280;1561;42.666;23.392;2022-08-01T14:09:33;94839.53;;;27.98;45.63
3102;BME280;1561;42.666;23.392;2022-08-01T14:12:04;94853.97;;;27.67;46.18
3102;BME280;1561;42.666;23.392;2022-08-01T14:14:33;94848.38;;;27.92;46.43
3102;BME280;1561;42.666;23.392;2022-08-01T14:17:01;94851.84;;;27.97;45.55
3102;BME280;1561;42.666;23.392;2022-08-01T14:19:35;94833.47;;;27.81;45.75
3102;BME280;1561;42.666;23.392;2022-08-01T14:22:02;94841.09;;;27.82;46.22
3102;BME280;1561;42.666;23.392;2022-08-01T14:24:29;94850.16;;;28.08;45.58
3102;BME280;1561;42.666;23.392;2022-08-01T14:26:56;94855.28;;;27.98;46.22